sensor_id;sensor_type;location;lat;lon;timestamp;P1;durP1;ratioP1;P2;durP2;ratioP2
142;SDS011;63667;49.046;8.468;2023-01-30T00:01:38;46.70;;;19.57;;
142;SDS011;63667;49.046;8.468;2023-01-30T00:04:06;51.40;;;20.50;;
142;SDS011;63667;49.046;8.468;2023-01-30T00:06:34;53.80;;;21.87;;
142;SDS011;63667;49.046;8.468;2023-01-30T00:09:06;58.90;;;22.63;;
142;SDS011;63667;49.046;8.468;2023-01-30T00:11:35;51.60;;;20.50;;
142;SDS011;63667;49.046;8.468;2023-01-30T00:14:03;48.80;;;20.17;;
142;SDS011;63667;49.046;8.468;2023-01-30T00:16:31;50.60;;;20.97;;
142;SDS011;63667;49.046;8.468;2023-01-30T00:18:59;54.50;;;21.07;;
142;SDS011;63667;49.046;8.468;2023-01-30T00:21:27;54.70;;;20.47;;
142;SDS011;63667;49.046;8.468;2023-01-30T00:23:55;79.13;;;22.10;;
142;SDS011;63667;49.046;8.468;2023-01-30T00:26:22;51.63;;;20.17;;
142;SDS011;63667;49.046;8.468;2023-01-30T00:28:49;56.40;;;20.93;;
142;SDS011;63667;49.046;8.468;2023-01-30T00:31:18;57.93;;;20.40;;
142;SDS011;63667;49.046;8.468;2023-01-30T00:33:45;60.70;;;22.53;;
142;SDS011;63667;49.046;8.468;2023-01-30T00:36:14;51.30;;;21.30;;
142;SDS011;63667;49.046;8.468;2023-01-30T00:38:41;58.47;;;22.40;;
142;SDS011;63667;49.046;8.468;2023-01-30T00:41:10;58.33;;;21.80;;
142;SDS011;63667;49.046;8.468;2023-01-30T00:43:45;51.30;;;20.97;;
142;SDS011;63667;49.046;8.468;2023-01-30T00:46:33;59.33;;;20.33;;
142;SDS011;63667;49.046;8.468;2023-01-30T00:49:18;58.30;;;22.73;;
142;SDS011;63667;49.046;8.468;2023-01-30T00:51:46;60.97;;;22.33;;
142;SDS011;63667;49.046;8.468;2023-01-30T00:54:13;55.60;;;21.30;;
142;SDS011;63667;49.046;8.468;2023-01-30T00:56:42;58.83;;;22.23;;
142;SDS011;63667;49.046;8.468;2023-01-30T00:59:08;60.80;;;23.30;;
142;SDS011;63667;49.046;8.468;2023-01-30T01:01:36;60.60;;;21.60;;
142;SDS011;63667;49.046;8.468;2023-01-30T01:04:04;58.27;;;22.87;;
142;SDS011;63667;49.046;8.468;2023-01-30T01:06:35;59.47;;;22.30;;
142;SDS011;63667;49.046;8.468;2023-01-30T01:09:03;58.77;;;22.40;;
142;SDS011;63667;49.046;8.468;2023-01-30T01:11:30;64.23;;;22.87;;
142;SDS011;63667;49.046;8.468;2023-01-30T01:13:58;58.43;;;21.80;;
142;SDS011;63667;49.046;8.468;2023-01-30T01:16:27;67.63;;;24.30;;
142;SDS011;63667;49.046;8.468;2023-01-30T01:18:55;58.10;;;21.67;;
142;SDS011;63667;49.046;8.468;2023-01-30T01:21:22;61.80;;;21.40;;
142;SDS011;63667;49.046;8.468;2023-01-30T01:23:51;62.00;;;21.83;;
142;SDS011;63667;49.046;8.468;2023-01-30T01:26:21;57.30;;;20.77;;
142;SDS011;63667;49.046;8.468;2023-01-30T01:28:48;63.13;;;22.73;;
142;SDS011;63667;49.046;8.468;2023-01-30T01:31:18;61.73;;;22.23;;
142;SDS011;63667;49.046;8.468;2023-01-30T01:33:46;56.67;;;20.60;;
142;SDS011;63667;49.046;8.468;2023-01-30T01:36:14;59.13;;;21.13;;
142;SDS011;63667;49.046;8.468;2023-01-30T01:38:42;54.10;;;18.70;;
142;SDS011;63667;49.046;8.468;2023-01-30T01:41:10;57.40;;;20.10;;
142;SDS011;63667;49.046;8.468;2023-01-30T01:46:35;51.20;;;19.13;;
142;SDS011;63667;49.046;8.468;2023-01-30T01:49:06;54.90;;;20.03;;
142;SDS011;63667;49.046;8.468;2023-01-30T02:00:14;55.73;;;19.83;;
142;SDS011;63667;49.046;8.468;2023-01-30T02:02:44;49.07;;;18.37;;
142;SDS011;63667;49.046;8.468;2023-01-30T02:05:14;46.00;;;18.03;;
142;SDS011;63667;49.046;8.468;2023-01-30T02:07:49;53.97;;;18.50;;
142;SDS011;63667;49.046;8.468;2023-01-30T02:10:24;50.97;;;19.27;;
142;SDS011;63667;49.046;8.468;2023-01-30T02:13:12;63.10;;;18.30;;
142;SDS011;63667;49.046;8.468;2023-01-30T02:15:40;40.40;;;16.53;;
142;SDS011;63667;49.046;8.468;2023-01-30T02:18:07;48.70;;;17.17;;
142;SDS011;63667;49.046;8.468;2023-01-30T02:20:55;43.83;;;16.20;;
142;SDS011;63667;49.046;8.468;2023-01-30T02:27:07;51.10;;;18.43;;
142;SDS011;63667;49.046;8.468;2023-01-30T02:32:56;49.10;;;19.00;;
142;SDS011;63667;49.046;8.468;2023-01-30T02:40:58;48.37;;;18.40;;
142;SDS011;63667;49.046;8.468;2023-01-30T02:43:45;42.20;;;16.10;;
142;SDS011;63667;49.046;8.468;2023-01-30T02:46:42;44.07;;;17.40;;
142;SDS011;63667;49.046;8.468;2023-01-30T02:51:56;48.60;;;17.73;;
142;SDS011;63667;49.046;8.468;2023-01-30T02:54:26;59.40;;;18.80;;
142;SDS011;63667;49.046;8.468;2023-01-30T02:56:56;59.67;;;18.50;;
142;SDS011;63667;49.046;8.468;2023-01-30T02:59:34;44.40;;;18.47;;
142;SDS011;63667;49.046;8.468;2023-01-30T03:11:04;50.73;;;19.80;;
142;SDS011;63667;49.046;8.468;2023-01-30T03:13:52;45.20;;;16.57;;
142;SDS011;63667;49.046;8.468;2023-01-30T03:16:46;56.27;;;19.27;;
142;SDS011;63667;49.046;8.468;2023-01-30T03:19:16;44.80;;;17.90;;
142;SDS011;63667;49.046;8.468;2023-01-30T03:21:45;48.23;;;18.10;;
142;SDS011;63667;49.046;8.468;2023-01-30T03:24:13;45.30;;;18.50;;
142;SDS011;63667;49.046;8.468;2023-01-30T03:26:48;43.90;;;17.60;;
142;SDS011;63667;49.046;8.468;2023-01-30T03:29:24;46.63;;;16.47;;
142;SDS011;63667;49.046;8.468;2023-01-30T03:31:54;42.77;;;17.00;;
142;SDS011;63667;49.046;8.468;2023-01-30T03:34:21;50.40;;;17.40;;
142;SDS011;63667;49.046;8.468;2023-01-30T03:36:48;45.23;;;18.57;;
142;SDS011;63667;49.046;8.468;2023-01-30T03:39:16;43.43;;;17.80;;
142;SDS011;63667;49.046;8.468;2023-01-30T03:41:44;46.50;;;18.13;;
142;SDS011;63667;49.046;8.468;2023-01-30T03:44:11;43.47;;;17.33;;
142;SDS011;63667;49.046;8.468;2023-01-30T03:46:38;41.33;;;17.23;;
142;SDS011;63667;49.046;8.468;2023-01-30T03:49:06;48.80;;;19.60;;
142;SDS011;63667;49.046;8.468;2023-01-30T03:51:34;42.40;;;17.97;;
142;SDS011;63667;49.046;8.468;2023-01-30T03:54:01;42.60;;;18.90;;
142;SDS011;63667;49.046;8.468;2023-01-30T03:56:30;44.90;;;18.53;;
142;SDS011;63667;49.046;8.468;2023-01-30T03:58:57;47.60;;;18.70;;
142;SDS011;63667;49.046;8.468;2023-01-30T04:01:24;44.53;;;18.03;;
142;SDS011;63667;49.046;8.468;2023-01-30T04:03:52;42.63;;;17.17;;
142;SDS011;63667;49.046;8.468;2023-01-30T04:06:20;44.60;;;18.47;;
142;SDS011;63667;49.046;8.468;2023-01-30T04:08:50;40.03;;;17.20;;
142;SDS011;63667;49.046;8.468;2023-01-30T04:11:19;41.63;;;17.07;;
142;SDS011;63667;49.046;8.468;2023-01-30T04:13:47;42.97;;;19.50;;
142;SDS011;63667;49.046;8.468;2023-01-30T04:18:42;46.20;;;17.07;;
142;SDS011;63667;49.046;8.468;2023-01-30T04:21:16;43.93;;;15.90;;
142;SDS011;63667;49.046;8.468;2023-01-30T04:23:43;43.17;;;16.33;;
142;SDS011;63667;49.046;8.468;2023-01-30T04:26:11;43.70;;;17.03;;
142;SDS011;63667;49.046;8.468;2023-01-30T04:28:40;38.17;;;15.63;;
142;SDS011;63667;49.046;8.468;2023-01-30T04:31:09;35.53;;;15.47;;
142;SDS011;63667;49.046;8.468;2023-01-30T04:33:37;42.93;;;15.60;;
142;SDS011;63667;49.046;8.468;2023-01-30T04:36:06;40.87;;;16.00;;
142;SDS011;63667;49.046;8.468;2023-01-30T04:38:34;38.20;;;16.30;;
142;SDS011;63667;49.046;8.468;2023-01-30T04:41:01;45.20;;;15.90;;
142;SDS011;63667;49.046;8.468;2023-01-30T04:43:28;41.07;;;16.80;;
142;SDS011;63667;49.046;8.468;2023-01-30T04:45:56;34.57;;;15.37;;
142;SDS011;63667;49.046;8.468;2023-01-30T04:48:23;41.63;;;16.43;;
142;SDS011;63667;49.046;8.468;2023-01-30T04:50:53;40.73;;;16.20;;
142;SDS011;63667;49.046;8.468;2023-01-30T04:53:21;35.90;;;13.90;;
142;SDS011;63667;49.046;8.468;2023-01-30T04:55:49;35.93;;;15.23;;
142;SDS011;63667;49.046;8.468;2023-01-30T04:58:16;40.67;;;16.20;;
142;SDS011;63667;49.046;8.468;2023-01-30T05:00:47;36.20;;;14.73;;
142;SDS011;63667;49.046;8.468;2023-01-30T05:03:16;38.63;;;16.67;;
142;SDS011;63667;49.046;8.468;2023-01-30T05:05:46;38.93;;;15.67;;
142;SDS011;63667;49.046;8.468;2023-01-30T05:08:14;39.20;;;15.67;;
142;SDS011;63667;49.046;8.468;2023-01-30T05:10:41;39.63;;;16.00;;
142;SDS011;63667;49.046;8.468;2023-01-30T05:13:09;35.10;;;14.30;;
142;SDS011;63667;49.046;8.468;2023-01-30T05:15:37;40.00;;;15.77;;
142;SDS011;63667;49.046;8.468;2023-01-30T05:18:06;35.00;;;13.80;;
142;SDS011;63667;49.046;8.468;2023-01-30T05:20:33;34.83;;;14.70;;
142;SDS011;63667;49.046;8.468;2023-01-30T05:23:00;35.73;;;13.70;;
142;SDS011;63667;49.046;8.468;2023-01-30T05:25:28;32.10;;;12.20;;
142;SDS011;63667;49.046;8.468;2023-01-30T05:27:54;27.33;;;11.27;;
142;SDS011;63667;49.046;8.468;2023-01-30T05:30:22;34.40;;;14.53;;
142;SDS011;63667;49.046;8.468;2023-01-30T05:32:50;39.07;;;14.40;;
142;SDS011;63667;49.046;8.468;2023-01-30T05:35:17;33.50;;;13.27;;
142;SDS011;63667;49.046;8.468;2023-01-30T05:37:48;34.00;;;13.37;;
142;SDS011;63667;49.046;8.468;2023-01-30T05:40:17;32.63;;;13.53;;
142;SDS011;63667;49.046;8.468;2023-01-30T05:42:45;30.03;;;11.27;;
142;SDS011;63667;49.046;8.468;2023-01-30T05:45:12;37.27;;;13.90;;
142;SDS011;63667;49.046;8.468;2023-01-30T05:47:48;36.73;;;15.07;;
142;SDS011;63667;49.046;8.468;2023-01-30T05:50:17;33.37;;;13.80;;
142;SDS011;63667;49.046;8.468;2023-01-30T05:52:44;25.97;;;11.03;;
142;SDS011;63667;49.046;8.468;2023-01-30T05:55:11;33.30;;;12.60;;
142;SDS011;63667;49.046;8.468;2023-01-30T05:57:38;31.53;;;13.50;;
142;SDS011;63667;49.046;8.468;2023-01-30T06:00:08;34.40;;;13.40;;
142;SDS011;63667;49.046;8.468;2023-01-30T06:02:38;27.27;;;12.00;;
142;SDS011;63667;49.046;8.468;2023-01-30T06:05:08;31.00;;;13.80;;
142;SDS011;63667;49.046;8.468;2023-01-30T06:07:35;31.53;;;13.13;;
142;SDS011;63667;49.046;8.468;2023-01-30T06:10:03;33.00;;;13.70;;
142;SDS011;63667;49.046;8.468;2023-01-30T06:12:32;32.57;;;11.40;;
142;SDS011;63667;49.046;8.468;2023-01-30T06:15:00;31.57;;;13.33;;
142;SDS011;63667;49.046;8.468;2023-01-30T06:17:27;35.90;;;13.80;;
142;SDS011;63667;49.046;8.468;2023-01-30T06:19:56;39.60;;;13.40;;
142;SDS011;63667;49.046;8.468;2023-01-30T06:22:23;28.50;;;11.97;;
142;SDS011;63667;49.046;8.468;2023-01-30T06:24:51;32.37;;;13.40;;
142;SDS011;63667;49.046;8.468;2023-01-30T06:27:17;29.50;;;11.50;;
142;SDS011;63667;49.046;8.468;2023-01-30T06:29:46;31.53;;;11.37;;
142;SDS011;63667;49.046;8.468;2023-01-30T06:32:12;35.53;;;14.27;;
142;SDS011;63667;49.046;8.468;2023-01-30T06:34:39;32.70;;;13.33;;
142;SDS011;63667;49.046;8.468;2023-01-30T06:37:05;24.37;;;11.43;;
142;SDS011;63667;49.046;8.468;2023-01-30T06:39:32;34.60;;;14.20;;
142;SDS011;63667;49.046;8.468;2023-01-30T06:42:00;34.73;;;14.03;;
142;SDS011;63667;49.046;8.468;2023-01-30T06:44:26;33.53;;;13.47;;
142;SDS011;63667;49.046;8.468;2023-01-30T06:46:52;37.53;;;14.37;;
142;SDS011;63667;49.046;8.468;2023-01-30T06:49:20;32.70;;;13.27;;
142;SDS011;63667;49.046;8.468;2023-01-30T06:51:48;30.63;;;12.53;;
142;SDS011;63667;49.046;8.468;2023-01-30T06:54:15;32.13;;;12.93;;
142;SDS011;63667;49.046;8.468;2023-01-30T06:56:41;37.03;;;13.30;;
142;SDS011;63667;49.046;8.468;2023-01-30T06:59:09;31.87;;;13.40;;
142;SDS011;63667;49.046;8.468;2023-01-30T07:01:35;38.33;;;14.00;;
142;SDS011;63667;49.046;8.468;2023-01-30T07:04:03;28.60;;;11.83;;
142;SDS011;63667;49.046;8.468;2023-01-30T07:06:31;33.50;;;11.70;;
142;SDS011;63667;49.046;8.468;2023-01-30T07:08:58;31.53;;;12.57;;
142;SDS011;63667;49.046;8.468;2023-01-30T07:11:26;28.83;;;11.73;;
142;SDS011;63667;49.046;8.468;2023-01-30T07:13:53;25.50;;;11.00;;
142;SDS011;63667;49.046;8.468;2023-01-30T07:16:21;31.07;;;12.33;;
142;SDS011;63667;49.046;8.468;2023-01-30T07:18:54;31.23;;;12.43;;
142;SDS011;63667;49.046;8.468;2023-01-30T07:21:23;32.13;;;12.77;;
142;SDS011;63667;49.046;8.468;2023-01-30T07:23:52;31.03;;;13.40;;
142;SDS011;63667;49.046;8.468;2023-01-30T07:26:19;27.50;;;11.70;;
142;SDS011;63667;49.046;8.468;2023-01-30T07:28:47;23.63;;;10.90;;
142;SDS011;63667;49.046;8.468;2023-01-30T07:31:15;26.60;;;10.60;;
142;SDS011;63667;49.046;8.468;2023-01-30T07:33:43;30.87;;;12.73;;
142;SDS011;63667;49.046;8.468;2023-01-30T07:36:11;24.03;;;10.47;;
142;SDS011;63667;49.046;8.468;2023-01-30T07:38:39;31.10;;;12.57;;
142;SDS011;63667;49.046;8.468;2023-01-30T07:41:06;38.23;;;12.93;;
142;SDS011;63667;49.046;8.468;2023-01-30T07:43:34;31.63;;;12.30;;
142;SDS011;63667;49.046;8.468;2023-01-30T07:46:01;25.87;;;11.50;;
142;SDS011;63667;49.046;8.468;2023-01-30T07:48:29;30.77;;;12.20;;
142;SDS011;63667;49.046;8.468;2023-01-30T07:50:57;29.63;;;10.80;;
142;SDS011;63667;49.046;8.468;2023-01-30T07:53:24;33.50;;;12.73;;
142;SDS011;63667;49.046;8.468;2023-01-30T07:55:52;28.37;;;10.67;;
142;SDS011;63667;49.046;8.468;2023-01-30T07:58:19;29.50;;;10.97;;
142;SDS011;63667;49.046;8.468;2023-01-30T08:00:47;26.47;;;11.30;;
142;SDS011;63667;49.046;8.468;2023-01-30T08:03:15;29.17;;;13.27;;
142;SDS011;63667;49.046;8.468;2023-01-30T08:05:46;28.57;;;12.03;;
142;SDS011;63667;49.046;8.468;2023-01-30T08:08:15;26.47;;;11.37;;
142;SDS011;63667;49.046;8.468;2023-01-30T08:10:42;27.43;;;12.07;;
142;SDS011;63667;49.046;8.468;2023-01-30T08:13:10;26.53;;;11.60;;
142;SDS011;63667;49.046;8.468;2023-01-30T08:15:39;23.20;;;9.80;;
142;SDS011;63667;49.046;8.468;2023-01-30T08:18:06;29.60;;;12.43;;
142;SDS011;63667;49.046;8.468;2023-01-30T08:20:34;31.43;;;11.17;;
142;SDS011;63667;49.046;8.468;2023-01-30T08:23:02;32.80;;;11.80;;
142;SDS011;63667;49.046;8.468;2023-01-30T08:25:29;33.97;;;12.10;;
142;SDS011;63667;49.046;8.468;2023-01-30T08:27:57;33.13;;;13.73;;
142;SDS011;63667;49.046;8.468;2023-01-30T08:30:25;27.80;;;11.00;;
142;SDS011;63667;49.046;8.468;2023-01-30T08:32:52;47.57;;;12.40;;
142;SDS011;63667;49.046;8.468;2023-01-30T08:35:20;34.20;;;13.30;;
142;SDS011;63667;49.046;8.468;2023-01-30T08:37:47;33.13;;;12.10;;
142;SDS011;63667;49.046;8.468;2023-01-30T08:40:15;30.50;;;11.90;;
142;SDS011;63667;49.046;8.468;2023-01-30T08:42:43;31.90;;;10.90;;
142;SDS011;63667;49.046;8.468;2023-01-30T08:45:10;35.00;;;12.50;;
142;SDS011;63667;49.046;8.468;2023-01-30T08:47:38;32.83;;;13.23;;
142;SDS011;63667;49.046;8.468;2023-01-30T08:50:09;24.27;;;9.50;;
142;SDS011;63667;49.046;8.468;2023-01-30T08:52:37;22.23;;;10.80;;
142;SDS011;63667;49.046;8.468;2023-01-30T08:55:05;25.97;;;9.77;;
142;SDS011;63667;49.046;8.468;2023-01-30T08:57:32;24.07;;;9.60;;
142;SDS011;63667;49.046;8.468;2023-01-30T09:00:00;37.20;;;11.33;;
142;SDS011;63667;49.046;8.468;2023-01-30T09:02:27;24.00;;;10.63;;
142;SDS011;63667;49.046;8.468;2023-01-30T09:04:55;28.93;;;11.07;;
142;SDS011;63667;49.046;8.468;2023-01-30T09:07:22;27.37;;;11.70;;
142;SDS011;63667;49.046;8.468;2023-01-30T09:09:50;26.10;;;9.90;;
142;SDS011;63667;49.046;8.468;2023-01-30T09:12:18;29.27;;;11.97;;
142;SDS011;63667;49.046;8.468;2023-01-30T09:14:45;30.90;;;12.23;;
142;SDS011;63667;49.046;8.468;2023-01-30T09:17:15;25.00;;;9.43;;
142;SDS011;63667;49.046;8.468;2023-01-30T09:19:42;32.87;;;12.03;;
142;SDS011;63667;49.046;8.468;2023-01-30T09:22:10;25.73;;;11.00;;
142;SDS011;63667;49.046;8.468;2023-01-30T09:24:38;30.20;;;11.97;;
142;SDS011;63667;49.046;8.468;2023-01-30T09:27:05;31.50;;;11.93;;
142;SDS011;63667;49.046;8.468;2023-01-30T09:29:33;35.87;;;13.13;;
142;SDS011;63667;49.046;8.468;2023-01-30T09:32:00;32.60;;;12.30;;
142;SDS011;63667;49.046;8.468;2023-01-30T09:34:28;27.40;;;11.63;;
142;SDS011;63667;49.046;8.468;2023-01-30T09:36:58;28.83;;;12.10;;
142;SDS011;63667;49.046;8.468;2023-01-30T09:39:25;32.57;;;12.60;;
142;SDS011;63667;49.046;8.468;2023-01-30T09:47:10;33.17;;;13.40;;
142;SDS011;63667;49.046;8.468;2023-01-30T09:49:47;33.20;;;11.93;;
142;SDS011;63667;49.046;8.468;2023-01-30T09:52:34;36.10;;;12.77;;
142;SDS011;63667;49.046;8.468;2023-01-30T09:55:16;35.23;;;13.10;;
142;SDS011;63667;49.046;8.468;2023-01-30T09:57:45;33.03;;;13.17;;
142;SDS011;63667;49.046;8.468;2023-01-30T10:00:18;31.13;;;11.80;;
142;SDS011;63667;49.046;8.468;2023-01-30T10:03:10;33.90;;;13.90;;
142;SDS011;63667;49.046;8.468;2023-01-30T10:11:00;28.13;;;11.10;;
142;SDS011;63667;49.046;8.468;2023-01-30T10:26:46;28.87;;;11.63;;
142;SDS011;63667;49.046;8.468;2023-01-30T10:29:18;24.97;;;10.43;;
142;SDS011;63667;49.046;8.468;2023-01-30T10:34:34;26.60;;;12.37;;
142;SDS011;63667;49.046;8.468;2023-01-30T10:37:05;29.93;;;11.83;;
142;SDS011;63667;49.046;8.468;2023-01-30T10:42:08;29.17;;;11.87;;
142;SDS011;63667;49.046;8.468;2023-01-30T10:44:37;27.93;;;11.07;;
142;SDS011;63667;49.046;8.468;2023-01-30T10:47:19;37.03;;;13.87;;
142;SDS011;63667;49.046;8.468;2023-01-30T10:49:56;33.17;;;12.67;;
142;SDS011;63667;49.046;8.468;2023-01-30T10:52:35;31.57;;;12.47;;
142;SDS011;63667;49.046;8.468;2023-01-30T10:55:24;34.50;;;11.47;;
142;SDS011;63667;49.046;8.468;2023-01-30T11:00:39;27.63;;;11.77;;
142;SDS011;63667;49.046;8.468;2023-01-30T11:05:46;33.00;;;13.60;;
142;SDS011;63667;49.046;8.468;2023-01-30T11:10:44;27.53;;;11.73;;
142;SDS011;63667;49.046;8.468;2023-01-30T11:13:15;29.90;;;10.40;;
142;SDS011;63667;49.046;8.468;2023-01-30T11:15:43;33.23;;;11.70;;
142;SDS011;63667;49.046;8.468;2023-01-30T11:18:11;29.07;;;11.53;;
142;SDS011;63667;49.046;8.468;2023-01-30T11:20:40;34.67;;;13.00;;
142;SDS011;63667;49.046;8.468;2023-01-30T11:23:08;28.00;;;11.10;;
142;SDS011;63667;49.046;8.468;2023-01-30T11:25:50;34.47;;;12.80;;
142;SDS011;63667;49.046;8.468;2023-01-30T11:28:17;32.93;;;11.17;;
142;SDS011;63667;49.046;8.468;2023-01-30T11:31:04;32.60;;;13.20;;
142;SDS011;63667;49.046;8.468;2023-01-30T11:33:36;29.30;;;11.07;;
142;SDS011;63667;49.046;8.468;2023-01-30T11:36:06;33.10;;;12.00;;
142;SDS011;63667;49.046;8.468;2023-01-30T11:39:31;30.57;;;12.77;;
142;SDS011;63667;49.046;8.468;2023-01-30T11:41:41;36.80;;;12.53;;
142;SDS011;63667;49.046;8.468;2023-01-30T11:44:09;33.93;;;13.47;;
142;SDS011;63667;49.046;8.468;2023-01-30T11:46:37;36.33;;;14.13;;
142;SDS011;63667;49.046;8.468;2023-01-30T11:49:10;37.27;;;13.30;;
142;SDS011;63667;49.046;8.468;2023-01-30T11:51:38;37.60;;;14.10;;
142;SDS011;63667;49.046;8.468;2023-01-30T11:54:12;41.93;;;13.77;;
142;SDS011;63667;49.046;8.468;2023-01-30T11:56:47;38.33;;;15.53;;
142;SDS011;63667;49.046;8.468;2023-01-30T12:04:37;37.27;;;15.00;;
142;SDS011;63667;49.046;8.468;2023-01-30T12:07:26;38.60;;;14.40;;
142;SDS011;63667;49.046;8.468;2023-01-30T12:09:53;41.40;;;14.90;;
142;SDS011;63667;49.046;8.468;2023-01-30T12:15:26;41.83;;;14.03;;
142;SDS011;63667;49.046;8.468;2023-01-30T12:18:12;39.83;;;13.77;;
142;SDS011;63667;49.046;8.468;2023-01-30T12:20:58;46.47;;;15.70;;
142;SDS011;63667;49.046;8.468;2023-01-30T12:23:45;41.50;;;14.83;;
142;SDS011;63667;49.046;8.468;2023-01-30T12:26:19;36.53;;;14.47;;
142;SDS011;63667;49.046;8.468;2023-01-30T12:31:41;37.87;;;14.17;;
142;SDS011;63667;49.046;8.468;2023-01-30T12:34:26;44.20;;;16.37;;
142;SDS011;63667;49.046;8.468;2023-01-30T12:42:52;46.30;;;16.10;;
142;SDS011;63667;49.046;8.468;2023-01-30T12:45:30;49.10;;;15.50;;
142;SDS011;63667;49.046;8.468;2023-01-30T12:48:49;41.80;;;16.07;;
142;SDS011;63667;49.046;8.468;2023-01-30T12:54:16;39.50;;;15.60;;
142;SDS011;63667;49.046;8.468;2023-01-30T13:09:44;37.13;;;12.87;;
142;SDS011;63667;49.046;8.468;2023-01-30T13:15:25;33.27;;;14.33;;
142;SDS011;63667;49.046;8.468;2023-01-30T13:18:12;33.47;;;13.37;;
142;SDS011;63667;49.046;8.468;2023-01-30T13:20:59;35.00;;;14.77;;
142;SDS011;63667;49.046;8.468;2023-01-30T13:26:26;33.20;;;13.70;;
142;SDS011;63667;49.046;8.468;2023-01-30T13:28:50;36.50;;;14.83;;
142;SDS011;63667;49.046;8.468;2023-01-30T13:31:19;37.30;;;13.60;;
142;SDS011;63667;49.046;8.468;2023-01-30T13:33:50;40.63;;;16.20;;
142;SDS011;63667;49.046;8.468;2023-01-30T13:36:22;42.00;;;16.40;;
142;SDS011;63667;49.046;8.468;2023-01-30T13:39:06;36.13;;;15.17;;
142;SDS011;63667;49.046;8.468;2023-01-30T13:41:38;34.57;;;13.90;;
142;SDS011;63667;49.046;8.468;2023-01-30T13:44:28;37.93;;;15.27;;
142;SDS011;63667;49.046;8.468;2023-01-30T13:46:55;32.87;;;13.00;;
142;SDS011;63667;49.046;8.468;2023-01-30T13:49:42;33.53;;;13.40;;
142;SDS011;63667;49.046;8.468;2023-01-30T13:52:46;32.87;;;12.57;;
142;SDS011;63667;49.046;8.468;2023-01-30T13:55:38;28.93;;;12.50;;
142;SDS011;63667;49.046;8.468;2023-01-30T14:00:28;29.63;;;11.87;;
142;SDS011;63667;49.046;8.468;2023-01-30T14:08:23;43.67;;;16.10;;
142;SDS011;63667;49.046;8.468;2023-01-30T14:10:54;33.87;;;13.57;;
142;SDS011;63667;49.046;8.468;2023-01-30T14:13:23;36.73;;;13.17;;
142;SDS011;63667;49.046;8.468;2023-01-30T14:15:59;35.10;;;15.00;;
142;SDS011;63667;49.046;8.468;2023-01-30T14:18:30;36.93;;;12.67;;
142;SDS011;63667;49.046;8.468;2023-01-30T14:21:13;37.53;;;14.90;;
142;SDS011;63667;49.046;8.468;2023-01-30T14:23:53;35.80;;;12.90;;
142;SDS011;63667;49.046;8.468;2023-01-30T14:34:41;35.43;;;13.70;;
142;SDS011;63667;49.046;8.468;2023-01-30T14:37:27;40.37;;;13.90;;
142;SDS011;63667;49.046;8.468;2023-01-30T14:39:54;39.93;;;13.50;;
142;SDS011;63667;49.046;8.468;2023-01-30T14:42:41;33.87;;;12.60;;
142;SDS011;63667;49.046;8.468;2023-01-30T14:51:59;31.53;;;13.13;;
142;SDS011;63667;49.046;8.468;2023-01-30T14:57:13;38.90;;;14.83;;
142;SDS011;63667;49.046;8.468;2023-01-30T15:04:21;40.27;;;12.93;;
142;SDS011;63667;49.046;8.468;2023-01-30T15:09:38;31.97;;;13.87;;
142;SDS011;63667;49.046;8.468;2023-01-30T15:12:30;34.53;;;12.60;;
142;SDS011;63667;49.046;8.468;2023-01-30T15:33:16;37.63;;;14.33;;
142;SDS011;63667;49.046;8.468;2023-01-30T15:35:46;30.63;;;12.60;;
142;SDS011;63667;49.046;8.468;2023-01-30T15:38:27;26.80;;;11.53;;
142;SDS011;63667;49.046;8.468;2023-01-30T15:40:55;27.73;;;11.50;;
142;SDS011;63667;49.046;8.468;2023-01-30T15:50:51;26.40;;;9.60;;
142;SDS011;63667;49.046;8.468;2023-01-30T15:53:21;36.33;;;10.50;;
142;SDS011;63667;49.046;8.468;2023-01-30T15:55:50;28.57;;;10.60;;
142;SDS011;63667;49.046;8.468;2023-01-30T15:58:18;25.67;;;10.80;;
142;SDS011;63667;49.046;8.468;2023-01-30T16:00:47;29.03;;;11.43;;
142;SDS011;63667;49.046;8.468;2023-01-30T16:03:19;35.83;;;10.67;;
142;SDS011;63667;49.046;8.468;2023-01-30T16:05:50;26.53;;;12.17;;
142;SDS011;63667;49.046;8.468;2023-01-30T16:08:23;25.60;;;11.43;;
142;SDS011;63667;49.046;8.468;2023-01-30T16:10:50;29.63;;;12.10;;
142;SDS011;63667;49.046;8.468;2023-01-30T16:13:18;28.93;;;12.07;;
142;SDS011;63667;49.046;8.468;2023-01-30T16:18:28;30.07;;;11.27;;
142;SDS011;63667;49.046;8.468;2023-01-30T16:21:02;27.93;;;11.77;;
142;SDS011;63667;49.046;8.468;2023-01-30T16:23:31;26.97;;;12.00;;
142;SDS011;63667;49.046;8.468;2023-01-30T16:25:59;27.90;;;11.03;;
142;SDS011;63667;49.046;8.468;2023-01-30T16:28:28;30.03;;;11.80;;
142;SDS011;63667;49.046;8.468;2023-01-30T16:31:03;30.13;;;11.20;;
142;SDS011;63667;49.046;8.468;2023-01-30T16:33:31;28.23;;;12.50;;
142;SDS011;63667;49.046;8.468;2023-01-30T16:36:01;27.77;;;11.73;;
142;SDS011;63667;49.046;8.468;2023-01-30T16:40:58;28.03;;;11.00;;
142;SDS011;63667;49.046;8.468;2023-01-30T16:43:26;30.93;;;12.10;;
142;SDS011;63667;49.046;8.468;2023-01-30T16:48:45;25.40;;;11.00;;
142;SDS011;63667;49.046;8.468;2023-01-30T16:51:16;25.77;;;11.47;;
142;SDS011;63667;49.046;8.468;2023-01-30T16:53:55;24.80;;;11.33;;
142;SDS011;63667;49.046;8.468;2023-01-30T16:56:23;24.33;;;10.97;;
142;SDS011;63667;49.046;8.468;2023-01-30T16:58:52;22.90;;;10.20;;
142;SDS011;63667;49.046;8.468;2023-01-30T17:01:20;31.50;;;11.53;;
142;SDS011;63667;49.046;8.468;2023-01-30T17:03:59;23.27;;;10.93;;
142;SDS011;63667;49.046;8.468;2023-01-30T17:06:33;24.20;;;11.03;;
142;SDS011;63667;49.046;8.468;2023-01-30T17:09:00;31.57;;;11.03;;
142;SDS011;63667;49.046;8.468;2023-01-30T17:11:39;24.37;;;10.87;;
142;SDS011;63667;49.046;8.468;2023-01-30T17:16:40;24.73;;;10.97;;
142;SDS011;63667;49.046;8.468;2023-01-30T17:19:08;26.33;;;10.20;;
142;SDS011;63667;49.046;8.468;2023-01-30T17:21:42;21.60;;;10.73;;
142;SDS011;63667;49.046;8.468;2023-01-30T17:24:17;23.23;;;9.20;;
142;SDS011;63667;49.046;8.468;2023-01-30T17:26:46;22.20;;;9.97;;
142;SDS011;63667;49.046;8.468;2023-01-30T17:29:14;19.60;;;9.53;;
142;SDS011;63667;49.046;8.468;2023-01-30T17:31:44;25.07;;;11.30;;
142;SDS011;63667;49.046;8.468;2023-01-30T17:34:12;23.53;;;10.30;;
142;SDS011;63667;49.046;8.468;2023-01-30T17:36:45;26.30;;;11.07;;
142;SDS011;63667;49.046;8.468;2023-01-30T17:39:14;22.23;;;10.40;;
142;SDS011;63667;49.046;8.468;2023-01-30T17:41:41;25.63;;;11.10;;
142;SDS011;63667;49.046;8.468;2023-01-30T17:44:09;26.97;;;10.73;;
142;SDS011;63667;49.046;8.468;2023-01-30T17:46:41;26.50;;;12.40;;
142;SDS011;63667;49.046;8.468;2023-01-30T17:49:20;29.77;;;11.70;;
142;SDS011;63667;49.046;8.468;2023-01-30T17:51:48;27.00;;;11.50;;
142;SDS011;63667;49.046;8.468;2023-01-30T17:54:15;30.97;;;12.63;;
142;SDS011;63667;49.046;8.468;2023-01-30T17:59:42;29.90;;;13.07;;
142;SDS011;63667;49.046;8.468;2023-01-30T18:02:19;32.70;;;13.57;;
142;SDS011;63667;49.046;8.468;2023-01-30T18:04:45;28.17;;;12.33;;
142;SDS011;63667;49.046;8.468;2023-01-30T18:07:13;34.67;;;13.57;;
142;SDS011;63667;49.046;8.468;2023-01-30T18:09:41;30.00;;;12.00;;
142;SDS011;63667;49.046;8.468;2023-01-30T18:12:09;28.20;;;12.00;;
142;SDS011;63667;49.046;8.468;2023-01-30T18:14:36;23.97;;;11.27;;
142;SDS011;63667;49.046;8.468;2023-01-30T18:17:04;27.17;;;11.90;;